createdAt,value
2018-04-09T00:00:27.062Z,15.30
2018-04-09T00:02:54.500Z,15.30
2018-04-09T00:05:22.805Z,15.20
2018-04-09T00:07:51.004Z,15.10
2018-04-09T00:10:18.495Z,15.10
2018-04-09T00:12:46.674Z,15.20
2018-04-09T00:15:14.143Z,15.10
2018-04-09T00:17:42.432Z,14.90
2018-04-09T00:20:10.617Z,14.90
2018-04-09T00:22:38.077Z,14.90
2018-04-09T00:25:06.277Z,15.10
2018-04-09T00:27:34.505Z,15.20
2018-04-09T00:30:01.960Z,15.10
2018-04-09T00:32:29.415Z,15.10
2018-04-09T00:34:57.629Z,15.00
2018-04-09T00:37:25.852Z,15.00
2018-04-09T00:39:53.295Z,15.00
2018-04-09T00:42:20.761Z,14.80
2018-04-09T00:44:48.348Z,14.70
2018-04-09T00:47:16.561Z,14.80
2018-04-09T00:49:44.116Z,14.80
2018-04-09T00:52:12.464Z,14.70
2018-04-09T00:54:39.892Z,14.70
2018-04-09T00:57:07.343Z,14.70
2018-04-09T00:59:34.800Z,14.70
2018-04-09T01:02:03.024Z,14.70
2018-04-09T01:04:30.600Z,14.60
2018-04-09T01:06:59.818Z,14.60
2018-04-09T01:09:28.109Z,14.50
2018-04-09T01:11:56.317Z,14.50
2018-04-09T01:14:23.786Z,14.50
2018-04-09T01:16:51.354Z,14.60
2018-04-09T01:19:19.561Z,14.60
2018-04-09T01:21:47.010Z,14.60
2018-04-09T01:24:15.256Z,14.50
2018-04-09T01:26:43.462Z,14.40
2018-04-09T01:29:10.931Z,14.40
2018-04-09T01:31:38.379Z,14.40
2018-04-09T01:34:05.861Z,14.50
2018-04-09T01:36:34.094Z,14.40
2018-04-09T01:39:02.335Z,14.30
2018-04-09T01:41:29.812Z,14.30
2018-04-09T01:43:57.259Z,14.20
2018-04-09T01:46:24.742Z,14.40
2018-04-09T01:48:52.950Z,14.30
2018-04-09T01:51:20.448Z,14.30
2018-04-09T01:53:47.891Z,14.30
2018-04-09T01:56:15.361Z,14.30
2018-04-09T01:58:42.847Z,14.30
2018-04-09T02:01:10.326Z,14.20
2018-04-09T02:03:37.782Z,14.20
2018-04-09T02:06:06.000Z,14.30
2018-04-09T02:08:33.444Z,14.30
2018-04-09T02:11:01.684Z,14.30
2018-04-09T02:13:29.366Z,14.30
2018-04-09T02:15:57.425Z,14.20
2018-04-09T02:18:24.880Z,14.10
2018-04-09T02:20:52.327Z,14.20
2018-04-09T02:23:19.784Z,14.10
2018-04-09T02:25:47.238Z,14.00
2018-04-09T02:28:14.672Z,14.00
2018-04-09T02:30:42.164Z,13.90
2018-04-09T02:33:10.381Z,13.80
2018-04-09T02:35:37.821Z,13.80
2018-04-09T02:38:05.300Z,13.70
2018-04-09T02:40:32.741Z,13.70
2018-04-09T02:43:00.252Z,13.70
2018-04-09T02:45:27.688Z,13.60
2018-04-09T02:47:55.140Z,13.60
2018-04-09T02:50:22.602Z,13.50
2018-04-09T02:52:50.053Z,13.50
2018-04-09T02:55:17.509Z,13.40
2018-04-09T02:57:45.716Z,13.50
2018-04-09T03:00:13.191Z,13.50
2018-04-09T03:02:40.644Z,13.50
2018-04-09T03:05:08.873Z,13.30
2018-04-09T03:07:36.334Z,13.30
2018-04-09T03:10:03.787Z,13.30
2018-04-09T03:12:31.993Z,13.20
2018-04-09T03:14:59.465Z,13.20
2018-04-09T03:17:27.660Z,13.20
2018-04-09T03:19:55.127Z,13.20
2018-04-09T03:22:23.350Z,13.10
2018-04-09T03:24:50.916Z,13.10
2018-04-09T03:27:19.126Z,13.10
2018-04-09T03:29:46.560Z,13.10
2018-04-09T03:32:14.827Z,13.10
2018-04-09T03:34:42.267Z,13.10
2018-04-09T03:37:09.787Z,13.00
2018-04-09T03:39:37.234Z,13.00
2018-04-09T03:42:04.686Z,13.00
2018-04-09T03:44:32.134Z,13.00
2018-04-09T03:46:59.604Z,13.00
2018-04-09T03:49:27.809Z,12.90
2018-04-09T03:51:55.277Z,12.90
2018-04-09T03:54:28.416Z,12.90
2018-04-09T03:56:55.875Z,12.90
2018-04-09T03:59:23.323Z,12.80
2018-04-09T04:01:51.550Z,12.70
2018-04-09T04:04:19.011Z,12.60
2018-04-09T04:06:46.481Z,12.70
2018-04-09T04:09:14.716Z,12.60
2018-04-09T04:11:42.178Z,12.60
2018-04-09T04:14:09.635Z,12.60
2018-04-09T04:16:48.914Z,12.60
2018-04-09T04:19:28.323Z,12.40
2018-04-09T04:21:55.795Z,12.50
2018-04-09T04:24:23.266Z,12.50
2018-04-09T04:26:51.474Z,12.50
2018-04-09T04:29:18.929Z,12.50
2018-04-09T04:31:46.370Z,12.50
2018-04-09T04:34:13.846Z,12.50
2018-04-09T04:36:41.284Z,12.40
2018-04-09T04:39:08.736Z,12.40
2018-04-09T04:41:36.239Z,12.40
2018-04-09T04:44:03.704Z,12.30
2018-04-09T04:46:31.147Z,12.30
2018-04-09T04:48:58.622Z,12.50
2018-04-09T04:51:26.098Z,12.60
2018-04-09T04:53:54.318Z,12.60
2018-04-09T04:56:21.765Z,12.60
2018-04-09T04:58:49.237Z,12.50
2018-04-09T05:01:17.481Z,12.60
2018-04-09T05:03:44.932Z,12.50
2018-04-09T05:06:12.419Z,12.70
2018-04-09T05:08:39.879Z,12.60
2018-04-09T05:11:07.335Z,12.70
2018-04-09T05:13:34.812Z,12.80
2018-04-09T05:16:03.063Z,12.80
2018-04-09T05:18:30.586Z,12.80
2018-04-09T05:20:58.808Z,12.80
2018-04-09T05:23:26.249Z,12.70
2018-04-09T05:25:53.717Z,12.80
2018-04-09T05:28:21.174Z,12.70
2018-04-09T05:30:49.420Z,12.80
2018-04-09T05:33:16.872Z,12.70
2018-04-09T05:35:44.327Z,12.80
2018-04-09T05:38:12.561Z,12.90
2018-04-09T05:40:39.999Z,12.90
2018-04-09T05:43:08.215Z,13.20
2018-04-09T05:45:36.144Z,13.20
2018-04-09T05:48:03.607Z,13.30
2018-04-09T05:50:31.080Z,13.50
2018-04-09T05:52:58.621Z,13.70
2018-04-09T05:55:26.837Z,13.90
2018-04-09T05:57:54.324Z,14.00
2018-04-09T06:00:21.865Z,14.10
2018-04-09T06:02:49.307Z,14.20
2018-04-09T06:05:16.817Z,14.10
2018-04-09T06:07:44.303Z,14.20
2018-04-09T06:10:11.748Z,14.20
2018-04-09T06:12:39.986Z,14.30
2018-04-09T06:15:07.436Z,14.30
2018-04-09T06:17:34.885Z,14.30
2018-04-09T06:20:03.121Z,14.40
2018-04-09T06:22:30.616Z,14.40
2018-04-09T06:24:58.226Z,14.40
2018-04-09T06:27:26.455Z,14.50
2018-04-09T06:29:53.930Z,14.50
2018-04-09T06:32:21.390Z,14.50
2018-04-09T06:34:48.962Z,14.50
2018-04-09T06:37:16.419Z,14.60
2018-04-09T06:39:44.687Z,14.60
2018-04-09T06:42:12.211Z,14.60
2018-04-09T06:44:40.938Z,14.70
2018-04-09T06:47:08.406Z,14.70
2018-04-09T06:49:35.888Z,14.80
2018-04-09T06:52:03.352Z,14.90
2018-04-09T06:54:31.007Z,14.90
2018-04-09T06:56:59.260Z,14.70
2018-04-09T06:59:26.735Z,14.70
2018-04-09T07:01:54.224Z,14.80
2018-04-09T07:04:21.690Z,14.90
2018-04-09T07:06:49.207Z,14.90
2018-04-09T07:09:18.305Z,15.00
2018-04-09T07:11:46.535Z,15.00
2018-04-09T07:14:13.988Z,15.00
2018-04-09T07:16:42.219Z,15.20
2018-04-09T07:19:09.681Z,15.20
2018-04-09T07:21:37.465Z,15.30
2018-04-09T07:24:04.929Z,15.20
2018-04-09T07:26:32.362Z,15.30
2018-04-09T07:29:00.640Z,15.50
2018-04-09T07:31:28.083Z,15.50
2018-04-09T07:33:55.572Z,15.60
2018-04-09T07:36:23.351Z,15.70
2018-04-09T07:38:50.901Z,15.70
2018-04-09T07:41:18.428Z,15.70
2018-04-09T07:43:45.901Z,15.60
2018-04-09T07:46:13.836Z,15.90
2018-04-09T07:48:41.356Z,15.90
2018-04-09T07:51:08.921Z,16.30
2018-04-09T07:53:36.435Z,16.60
2018-04-09T07:56:05.883Z,16.40
2018-04-09T07:58:33.502Z,16.40
2018-04-09T08:01:01.040Z,16.50
2018-04-09T08:03:28.872Z,16.60
2018-04-09T08:05:56.848Z,16.80
2018-04-09T08:08:24.605Z,16.80
2018-04-09T08:10:53.921Z,17.90
2018-04-09T08:13:21.457Z,17.90
2018-04-09T08:15:48.898Z,18.40
2018-04-09T08:18:16.384Z,18.70
2018-04-09T08:20:44.649Z,19.10
2018-04-09T08:23:12.111Z,19.00
2018-04-09T08:25:39.564Z,19.10
2018-04-09T08:28:07.820Z,19.30
2018-04-09T08:30:35.274Z,19.20
2018-04-09T08:33:02.757Z,19.80
2018-04-09T08:35:30.217Z,19.70
2018-04-09T08:37:57.663Z,19.40
2018-04-09T08:40:25.904Z,20.60
2018-04-09T08:42:53.644Z,20.60
2018-04-09T08:45:21.854Z,20.90
2018-04-09T08:47:49.327Z,20.90
2018-04-09T08:50:16.785Z,21.10
2018-04-09T08:52:44.264Z,21.20
2018-04-09T08:55:11.726Z,21.20
2018-04-09T08:57:39.190Z,21.30
2018-04-09T09:00:07.455Z,21.10
2018-04-09T09:02:34.899Z,21.10
2018-04-09T09:05:06.762Z,20.50
2018-04-09T09:07:34.231Z,20.10
2018-04-09T09:10:01.769Z,20.20
2018-04-09T09:12:29.232Z,20.30
2018-04-09T09:14:56.693Z,20.40
2018-04-09T09:17:24.152Z,20.40
2018-04-09T09:19:51.602Z,20.60
2018-04-09T09:22:19.084Z,21.00
2018-04-09T09:24:46.697Z,21.50
2018-04-09T09:27:15.386Z,21.70
2018-04-09T09:29:42.826Z,22.20
2018-04-09T09:32:11.049Z,23.00
2018-04-09T09:34:38.506Z,23.00
2018-04-09T09:37:05.961Z,23.00
2018-04-09T09:39:43.758Z,22.70
2018-04-09T09:42:11.284Z,22.40
2018-04-09T09:44:42.772Z,22.20
2018-04-09T09:47:14.108Z,22.10
2018-04-09T09:49:41.780Z,21.70
2018-04-09T09:52:18.463Z,21.40
2018-04-09T09:54:46.720Z,21.80
2018-04-09T09:57:14.212Z,21.80
2018-04-09T09:59:41.674Z,22.00
2018-04-09T10:02:09.171Z,22.10
2018-04-09T10:04:37.370Z,22.80
2018-04-09T10:07:04.858Z,22.80
2018-04-09T10:09:32.357Z,22.70
2018-04-09T10:11:59.871Z,22.80
2018-04-09T10:14:27.376Z,23.20
2018-04-09T10:16:55.610Z,23.70
2018-04-09T10:19:23.081Z,23.70
2018-04-09T10:21:50.579Z,23.90
2018-04-09T10:24:18.630Z,23.90
2018-04-09T10:26:46.101Z,23.70
2018-04-09T10:29:13.579Z,24.30
2018-04-09T10:31:41.052Z,24.90
2018-04-09T10:34:08.526Z,24.60
2018-04-09T10:36:35.968Z,24.10
2018-04-09T10:39:03.456Z,23.80
2018-04-09T10:41:30.909Z,23.80
2018-04-09T10:43:58.403Z,24.00
2018-04-09T10:46:25.890Z,24.00
2018-04-09T10:48:53.367Z,23.90
2018-04-09T10:51:20.831Z,23.80
2018-04-09T10:53:48.354Z,23.70
2018-04-09T10:56:15.794Z,24.10
2018-04-09T10:58:43.305Z,24.50
2018-04-09T11:01:10.856Z,24.80
2018-04-09T11:03:38.310Z,24.90
2018-04-09T11:06:05.807Z,24.40
2018-04-09T11:08:33.312Z,24.10
2018-04-09T11:11:00.785Z,24.30
2018-04-09T11:13:28.262Z,24.30
2018-04-09T11:15:56.494Z,25.90
2018-04-09T11:18:24.032Z,25.90
2018-04-09T11:20:51.517Z,26.10
2018-04-09T11:23:19.040Z,26.40
2018-04-09T11:25:46.530Z,26.40
2018-04-09T11:28:14.170Z,26.10
2018-04-09T11:30:41.738Z,26.30
2018-04-09T11:33:09.204Z,25.20
2018-04-09T11:35:36.727Z,25.70
2018-04-09T11:38:04.216Z,25.80
2018-04-09T11:40:31.684Z,25.90
2018-04-09T11:42:59.133Z,25.70
2018-04-09T11:45:27.378Z,26.20
2018-04-09T11:47:54.885Z,26.20
2018-04-09T11:50:22.408Z,26.50
2018-04-09T11:52:49.869Z,26.10
2018-04-09T11:55:17.358Z,25.80
2018-04-09T12:00:11.529Z,25.60
2018-04-09T12:02:38.990Z,25.60
2018-04-09T12:05:06.451Z,25.30
2018-04-09T12:07:33.935Z,25.10
2018-04-09T12:10:01.384Z,25.10
2018-04-09T12:12:28.873Z,24.60
2018-04-09T12:14:56.313Z,24.90
2018-04-09T12:17:24.553Z,25.30
2018-04-09T12:19:52.020Z,25.30
2018-04-09T12:22:19.500Z,25.10
2018-04-09T12:24:46.953Z,25.40
2018-04-09T12:27:14.533Z,25.70
2018-04-09T12:29:41.971Z,25.50
2018-04-09T12:32:09.443Z,26.10
2018-04-09T12:34:36.891Z,26.30
2018-04-09T12:37:04.347Z,26.60
2018-04-09T12:39:31.818Z,26.00
2018-04-09T12:41:59.306Z,25.90
2018-04-09T12:44:26.796Z,25.80
2018-04-09T12:46:54.285Z,25.50
2018-04-09T12:49:22.003Z,25.40
2018-04-09T12:51:49.462Z,25.60
2018-04-09T12:54:17.749Z,25.50
2018-04-09T12:56:45.189Z,25.50
2018-04-09T12:59:12.638Z,25.80
2018-04-09T13:01:40.120Z,26.20
2018-04-09T13:04:07.567Z,26.20
2018-04-09T13:06:35.042Z,26.70
2018-04-09T13:09:02.535Z,26.80
2018-04-09T13:11:30.039Z,26.60
2018-04-09T13:13:57.512Z,26.50
2018-04-09T13:16:24.962Z,25.90
2018-04-09T13:18:52.413Z,25.20
2018-04-09T13:21:19.912Z,25.30
2018-04-09T13:23:47.351Z,25.50
2018-04-09T13:26:15.574Z,26.10
2018-04-09T13:28:43.032Z,26.10
2018-04-09T13:31:10.513Z,26.90
2018-04-09T13:33:38.742Z,25.90
2018-04-09T13:36:06.200Z,25.80
2018-04-09T13:38:33.654Z,25.90
2018-04-09T13:41:01.132Z,25.90
2018-04-09T13:43:28.604Z,26.20
2018-04-09T13:45:56.827Z,25.20
2018-04-09T13:48:24.311Z,25.20
2018-04-09T13:50:51.801Z,25.50
2018-04-09T13:53:19.268Z,25.30
2018-04-09T13:55:46.708Z,24.80
2018-04-09T13:58:14.167Z,24.70
2018-04-09T14:00:41.633Z,24.30
2018-04-09T14:03:09.855Z,24.10
2018-04-09T14:05:37.298Z,24.10
2018-04-09T14:08:05.534Z,24.00
2018-04-09T14:10:33.023Z,23.90
2018-04-09T14:13:00.469Z,23.30
2018-04-09T14:15:27.917Z,23.30
2018-04-09T14:17:56.158Z,23.30
2018-04-09T14:20:23.597Z,23.30
2018-04-09T14:22:51.059Z,23.20
2018-04-09T14:25:19.308Z,23.00
2018-04-09T14:27:46.758Z,23.00
2018-04-09T14:30:14.241Z,23.10
2018-04-09T14:32:41.710Z,23.20
2018-04-09T14:35:09.167Z,23.10
2018-04-09T14:37:36.642Z,23.00
2018-04-09T14:40:04.131Z,23.00
2018-04-09T14:42:31.580Z,23.00
2018-04-09T14:44:59.978Z,23.10
2018-04-09T14:47:28.225Z,23.30
2018-04-09T14:49:55.686Z,23.30
2018-04-09T14:52:23.148Z,23.50
2018-04-09T14:54:50.674Z,23.60
2018-04-09T14:57:18.112Z,23.30
2018-04-09T14:59:45.581Z,23.50
2018-04-09T15:02:13.054Z,23.80
2018-04-09T15:04:40.510Z,24.00
2018-04-09T15:07:08.087Z,24.10
2018-04-09T15:09:35.566Z,24.40
2018-04-09T15:12:03.019Z,25.20
2018-04-09T15:14:31.273Z,24.90
2018-04-09T15:16:58.768Z,24.90
2018-04-09T15:19:26.220Z,24.90
2018-04-09T15:21:53.691Z,24.80
2018-04-09T15:24:21.143Z,24.70
2018-04-09T15:26:48.718Z,24.40
2018-04-09T15:29:16.163Z,24.60
2018-04-09T15:34:17.962Z,24.30
2018-04-09T15:36:45.518Z,24.10
2018-04-09T15:39:13.206Z,23.60
2018-04-09T15:41:40.927Z,23.40
2018-04-09T15:44:08.428Z,23.40
2018-04-09T15:46:35.882Z,23.30
2018-04-09T15:49:03.318Z,23.20
2018-04-09T15:51:30.860Z,23.00
2018-04-09T15:53:58.478Z,23.10
2018-04-09T15:56:25.992Z,23.40
2018-04-09T15:58:53.453Z,23.60
2018-04-09T16:01:21.698Z,23.10
2018-04-09T16:03:49.153Z,23.10
2018-04-09T16:06:16.714Z,22.90
2018-04-09T16:08:48.114Z,23.00
2018-04-09T16:11:15.575Z,22.70
2018-04-09T16:13:43.062Z,22.60
2018-04-09T16:16:10.635Z,22.70
2018-04-09T16:18:38.971Z,22.50
2018-04-09T16:21:07.215Z,22.60
2018-04-09T16:23:35.243Z,22.60
2018-04-09T16:26:02.675Z,22.70
2018-04-09T16:28:30.224Z,22.40
2018-04-09T16:30:57.678Z,22.50
2018-04-09T16:33:25.178Z,22.60
2018-04-09T16:35:52.761Z,22.60
2018-04-09T16:38:20.365Z,22.60
2018-04-09T16:40:47.836Z,22.40
2018-04-09T16:43:19.634Z,22.50
2018-04-09T16:45:47.105Z,22.60
2018-04-09T16:48:14.608Z,22.40
2018-04-09T16:50:42.880Z,22.30
2018-04-09T16:53:10.361Z,22.30
2018-04-09T17:05:17.881Z,22.30
2018-04-09T17:07:45.378Z,22.20
2018-04-09T17:10:12.896Z,22.10
2018-04-09T17:12:40.401Z,22.00
2018-04-09T17:15:07.963Z,21.90
2018-04-09T17:17:35.468Z,21.80
2018-04-09T17:20:02.994Z,21.70
2018-04-09T17:22:30.511Z,21.70
2018-04-09T17:24:58.110Z,21.80
2018-04-09T17:27:25.630Z,21.60
2018-04-09T17:29:53.162Z,21.50
2018-04-09T17:32:21.661Z,21.40
2018-04-09T17:34:49.306Z,21.20
2018-04-09T17:37:17.620Z,21.10
2018-04-09T17:39:45.197Z,21.00
2018-04-09T17:42:12.929Z,21.00
2018-04-09T17:44:40.538Z,20.90
2018-04-09T17:47:08.409Z,20.80
2018-04-09T17:49:38.145Z,20.50
2018-04-09T17:55:17.191Z,20.50
2018-04-09T18:00:17.496Z,20.30
2018-04-09T18:05:17.217Z,20.20
2018-04-09T18:12:48.360Z,19.90
2018-04-09T18:15:15.863Z,19.90
2018-04-09T18:17:44.357Z,19.70
2018-04-09T18:20:12.011Z,19.70
2018-04-09T18:22:39.564Z,19.70
2018-04-09T18:25:07.171Z,19.70
2018-04-09T18:27:34.751Z,19.60
2018-04-09T18:30:03.482Z,19.50
2018-04-09T18:42:11.293Z,19.50
2018-04-09T18:44:38.889Z,19.40
2018-04-09T18:47:06.683Z,19.40
2018-04-09T18:49:36.980Z,19.30
2018-04-09T18:52:06.295Z,19.30
2018-04-09T18:54:34.102Z,19.30
2018-04-09T18:57:01.794Z,19.20
2018-04-09T18:59:30.672Z,19.20
2018-04-09T19:01:58.883Z,19.20
2018-04-09T19:04:26.383Z,19.20
2018-04-09T19:06:53.830Z,19.10
2018-04-09T19:09:21.341Z,19.10
2018-04-09T19:11:48.813Z,19.10
2018-04-09T19:14:16.273Z,19.10
2018-04-09T19:16:43.808Z,19.10
2018-04-09T19:19:11.274Z,19.00
2018-04-09T19:21:38.964Z,19.00
2018-04-09T19:24:06.785Z,18.90
2018-04-09T19:26:35.533Z,18.80
2018-04-09T19:29:03.250Z,18.80
2018-04-09T19:31:30.788Z,18.80
2018-04-09T19:33:58.359Z,18.80
2018-04-09T19:36:31.720Z,18.80
2018-04-09T19:39:06.717Z,18.70
2018-04-09T19:41:35.339Z,18.60
2018-04-09T19:44:03.751Z,18.60
2018-04-09T19:46:31.642Z,18.60
2018-04-09T19:48:59.985Z,18.60
2018-04-09T19:51:27.779Z,18.50
2018-04-09T19:53:56.025Z,18.60
2018-04-09T19:56:23.830Z,18.60
2018-04-09T19:58:53.300Z,18.60
2018-04-09T20:01:21.853Z,18.50
2018-04-09T20:03:49.727Z,18.40
2018-04-09T20:06:17.842Z,18.40
2018-04-09T20:08:46.491Z,18.40
2018-04-09T20:11:14.249Z,18.40
2018-04-09T20:23:22.123Z,18.40
2018-04-09T20:25:49.975Z,18.20
2018-04-09T20:28:17.799Z,18.30
2018-04-09T20:30:46.055Z,18.20
2018-04-09T20:33:13.907Z,18.30
2018-04-09T20:35:41.700Z,18.20
2018-04-09T20:38:09.605Z,18.20
2018-04-09T20:40:38.815Z,18.10
2018-04-09T20:43:07.074Z,18.10
2018-04-09T20:45:35.256Z,18.00
2018-04-09T20:48:03.017Z,17.90
2018-04-09T20:50:31.497Z,17.70
2018-04-09T20:52:59.230Z,17.70
2018-04-09T20:55:26.792Z,17.60
2018-04-09T20:57:54.276Z,17.50
2018-04-09T21:00:21.827Z,17.50
2018-04-09T21:02:50.059Z,17.40
2018-04-09T21:05:17.559Z,17.40
2018-04-09T21:07:45.046Z,17.40
2018-04-09T21:10:12.562Z,17.40
2018-04-09T21:12:40.060Z,17.20
2018-04-09T21:15:08.031Z,17.20
2018-04-09T21:17:35.672Z,17.20
2018-04-09T21:29:43.286Z,17.10
2018-04-09T21:32:11.018Z,16.90
2018-04-09T21:39:44.428Z,16.80
2018-04-09T21:42:11.932Z,16.70
2018-04-09T21:44:39.442Z,16.60
2018-04-09T21:47:07.733Z,16.60
2018-04-09T21:49:35.359Z,16.60
2018-04-09T21:52:03.973Z,16.60
2018-04-09T21:54:31.765Z,16.50
2018-04-09T21:56:59.789Z,16.40
2018-04-09T21:59:27.333Z,16.40
2018-04-09T22:01:54.819Z,16.40
2018-04-09T22:04:22.553Z,16.40
2018-04-09T22:06:50.041Z,16.30
2018-04-09T22:09:17.763Z,16.30
2018-04-09T22:11:48.230Z,16.20
2018-04-09T22:16:43.989Z,16.30
2018-04-09T22:19:11.457Z,16.20
2018-04-09T22:21:38.912Z,16.20
2018-04-09T22:24:06.375Z,16.10
2018-04-09T22:26:33.894Z,16.10
2018-04-09T22:29:01.348Z,16.10
2018-04-09T22:31:28.924Z,16.10
2018-04-09T22:33:56.378Z,16.00
2018-04-09T22:36:23.870Z,16.00
2018-04-09T22:38:52.086Z,16.00
2018-04-09T22:41:19.549Z,16.00
2018-04-09T22:43:47.015Z,16.10
2018-04-09T22:46:14.477Z,16.00
2018-04-09T22:48:41.930Z,16.10
2018-04-09T22:51:09.429Z,16.00
2018-04-09T22:53:37.643Z,16.00
2018-04-09T22:56:05.187Z,16.00
2018-04-09T22:58:32.644Z,15.90
2018-04-09T23:01:00.122Z,15.90
2018-04-09T23:03:27.565Z,15.90
2018-04-09T23:05:55.053Z,15.90
2018-04-09T23:08:22.503Z,15.90
2018-04-09T23:10:50.021Z,15.90
2018-04-09T23:13:18.240Z,15.90
2018-04-09T23:15:45.695Z,15.90
2018-04-09T23:18:13.153Z,15.80
2018-04-09T23:20:40.637Z,15.80
2018-04-09T23:23:08.874Z,15.90
2018-04-09T23:25:36.330Z,15.90
2018-04-09T23:28:03.806Z,15.80
2018-04-09T23:30:31.284Z,15.80
2018-04-09T23:32:58.741Z,15.80
2018-04-09T23:35:26.980Z,15.80
2018-04-09T23:37:55.625Z,15.70
2018-04-09T23:40:23.173Z,15.70
2018-04-09T23:42:50.762Z,15.70
2018-04-09T23:45:18.204Z,15.60
2018-04-09T23:47:45.678Z,15.60
2018-04-09T23:50:13.133Z,15.50
2018-04-09T23:52:40.694Z,15.60
2018-04-09T23:55:08.155Z,15.60
2018-04-09T23:57:35.638Z,15.60
